sensor_id;sensor_type;location;lat;lon;timestamp;P1;durP1;ratioP1;P2;durP2;ratioP2
9904;SDS011;4991;43.566;27.820;2023-04-25T00:02:03;16.60;;;7.27;;
9904;SDS011;4991;43.566;27.820;2023-04-25T00:04:29;15.17;;;7.33;;
9904;SDS011;4991;43.566;27.820;2023-04-25T00:06:55;11.70;;;7.53;;
9904;SDS011;4991;43.566;27.820;2023-04-25T00:09:21;15.53;;;8.10;;
9904;SDS011;4991;43.566;27.820;2023-04-25T00:11:47;15.20;;;7.77;;
9904;SDS011;4991;43.566;27.820;2023-04-25T00:14:13;11.43;;;6.90;;
9904;SDS011;4991;43.566;27.820;2023-04-25T00:16:39;15.50;;;7.63;;
9904;SDS011;4991;43.566;27.820;2023-04-25T00:19:06;13.97;;;7.27;;
9904;SDS011;4991;43.566;27.820;2023-04-25T00:21:32;12.13;;;7.63;;
9904;SDS011;4991;43.566;27.820;2023-04-25T00:23:58;12.97;;;7.73;;
9904;SDS011;4991;43.566;27.820;2023-04-25T00:26:25;14.13;;;7.57;;
9904;SDS011;4991;43.566;27.820;2023-04-25T00:28:51;15.83;;;7.57;;
9904;SDS011;4991;43.566;27.820;2023-04-25T00:31:16;13.93;;;7.10;;
9904;SDS011;4991;43.566;27.820;2023-04-25T00:33:42;16.17;;;7.80;;
9904;SDS011;4991;43.566;27.820;2023-04-25T00:36:08;11.63;;;7.43;;
9904;SDS011;4991;43.566;27.820;2023-04-25T00:38:34;13.13;;;7.50;;
9904;SDS011;4991;43.566;27.820;2023-04-25T00:40:59;13.83;;;7.47;;
9904;SDS011;4991;43.566;27.820;2023-04-25T00:43:26;15.20;;;8.57;;
9904;SDS011;4991;43.566;27.820;2023-04-25T00:45:52;12.87;;;7.07;;
9904;SDS011;4991;43.566;27.820;2023-04-25T00:48:19;13.77;;;6.57;;
9904;SDS011;4991;43.566;27.820;2023-04-25T00:50:51;10.73;;;6.67;;
9904;SDS011;4991;43.566;27.820;2023-04-25T00:53:21;10.20;;;6.70;;
9904;SDS011;4991;43.566;27.820;2023-04-25T00:55:48;10.27;;;6.93;;
9904;SDS011;4991;43.566;27.820;2023-04-25T00:58:16;13.10;;;7.47;;
9904;SDS011;4991;43.566;27.820;2023-04-25T01:00:42;12.93;;;7.40;;
9904;SDS011;4991;43.566;27.820;2023-04-25T01:03:10;14.63;;;7.40;;
9904;SDS011;4991;43.566;27.820;2023-04-25T01:05:36;11.40;;;7.33;;
9904;SDS011;4991;43.566;27.820;2023-04-25T01:08:01;9.47;;;6.90;;
9904;SDS011;4991;43.566;27.820;2023-04-25T01:10:27;9.67;;;6.83;;
9904;SDS011;4991;43.566;27.820;2023-04-25T01:12:53;14.43;;;7.20;;
9904;SDS011;4991;43.566;27.820;2023-04-25T01:15:18;21.73;;;8.10;;
9904;SDS011;4991;43.566;27.820;2023-04-25T01:17:44;12.43;;;7.57;;
9904;SDS011;4991;43.566;27.820;2023-04-25T01:20:10;16.77;;;8.57;;
9904;SDS011;4991;43.566;27.820;2023-04-25T01:22:36;12.73;;;8.07;;
9904;SDS011;4991;43.566;27.820;2023-04-25T01:25:03;11.17;;;6.67;;
9904;SDS011;4991;43.566;27.820;2023-04-25T01:27:29;11.77;;;7.10;;
9904;SDS011;4991;43.566;27.820;2023-04-25T01:29:56;13.80;;;7.97;;
9904;SDS011;4991;43.566;27.820;2023-04-25T01:32:23;15.23;;;8.50;;
9904;SDS011;4991;43.566;27.820;2023-04-25T01:34:49;17.70;;;8.23;;
9904;SDS011;4991;43.566;27.820;2023-04-25T01:37:14;19.37;;;7.77;;
9904;SDS011;4991;43.566;27.820;2023-04-25T01:39:41;12.97;;;8.53;;
9904;SDS011;4991;43.566;27.820;2023-04-25T01:42:08;9.90;;;7.90;;
9904;SDS011;4991;43.566;27.820;2023-04-25T01:44:33;12.30;;;7.80;;
9904;SDS011;4991;43.566;27.820;2023-04-25T01:46:59;11.83;;;7.87;;
9904;SDS011;4991;43.566;27.820;2023-04-25T01:49:25;13.20;;;8.20;;
9904;SDS011;4991;43.566;27.820;2023-04-25T01:51:50;13.23;;;8.30;;
9904;SDS011;4991;43.566;27.820;2023-04-25T01:54:16;12.43;;;7.87;;
9904;SDS011;4991;43.566;27.820;2023-04-25T01:56:43;12.97;;;8.50;;
9904;SDS011;4991;43.566;27.820;2023-04-25T01:59:14;12.97;;;8.73;;
9904;SDS011;4991;43.566;27.820;2023-04-25T02:01:40;15.07;;;8.73;;
9904;SDS011;4991;43.566;27.820;2023-04-25T02:04:06;15.17;;;8.80;;
9904;SDS011;4991;43.566;27.820;2023-04-25T02:06:31;15.80;;;9.27;;
9904;SDS011;4991;43.566;27.820;2023-04-25T02:08:57;20.10;;;9.13;;
9904;SDS011;4991;43.566;27.820;2023-04-25T02:11:22;18.30;;;10.30;;
9904;SDS011;4991;43.566;27.820;2023-04-25T02:13:48;17.07;;;9.27;;
9904;SDS011;4991;43.566;27.820;2023-04-25T02:16:14;19.67;;;9.63;;
9904;SDS011;4991;43.566;27.820;2023-04-25T02:18:40;17.13;;;9.37;;
9904;SDS011;4991;43.566;27.820;2023-04-25T02:21:05;17.53;;;9.43;;
9904;SDS011;4991;43.566;27.820;2023-04-25T02:23:31;18.80;;;9.10;;
9904;SDS011;4991;43.566;27.820;2023-04-25T02:25:56;15.80;;;9.77;;
9904;SDS011;4991;43.566;27.820;2023-04-25T02:28:23;20.63;;;9.30;;
9904;SDS011;4991;43.566;27.820;2023-04-25T02:30:51;18.57;;;9.73;;
9904;SDS011;4991;43.566;27.820;2023-04-25T02:33:17;15.70;;;10.47;;
9904;SDS011;4991;43.566;27.820;2023-04-25T02:35:42;24.30;;;11.63;;
9904;SDS011;4991;43.566;27.820;2023-04-25T02:38:08;13.63;;;9.63;;
9904;SDS011;4991;43.566;27.820;2023-04-25T02:40:33;17.17;;;9.80;;
9904;SDS011;4991;43.566;27.820;2023-04-25T02:42:59;24.70;;;10.40;;
9904;SDS011;4991;43.566;27.820;2023-04-25T02:45:25;21.00;;;11.50;;
9904;SDS011;4991;43.566;27.820;2023-04-25T02:47:50;19.93;;;10.00;;
9904;SDS011;4991;43.566;27.820;2023-04-25T02:50:18;16.20;;;10.57;;
9904;SDS011;4991;43.566;27.820;2023-04-25T02:52:44;19.93;;;11.17;;
9904;SDS011;4991;43.566;27.820;2023-04-25T02:55:10;18.30;;;10.90;;
9904;SDS011;4991;43.566;27.820;2023-04-25T02:57:36;21.90;;;11.77;;
9904;SDS011;4991;43.566;27.820;2023-04-25T03:00:02;18.97;;;12.37;;
9904;SDS011;4991;43.566;27.820;2023-04-25T03:02:30;21.23;;;12.63;;
9904;SDS011;4991;43.566;27.820;2023-04-25T03:04:55;19.43;;;11.60;;
9904;SDS011;4991;43.566;27.820;2023-04-25T03:07:21;32.43;;;13.80;;
9904;SDS011;4991;43.566;27.820;2023-04-25T03:09:46;24.57;;;12.97;;
9904;SDS011;4991;43.566;27.820;2023-04-25T03:12:12;23.33;;;12.90;;
9904;SDS011;4991;43.566;27.820;2023-04-25T03:14:37;25.53;;;12.47;;
9904;SDS011;4991;43.566;27.820;2023-04-25T03:17:03;21.07;;;12.87;;
9904;SDS011;4991;43.566;27.820;2023-04-25T03:19:29;21.63;;;13.60;;
9904;SDS011;4991;43.566;27.820;2023-04-25T03:21:54;25.10;;;13.40;;
9904;SDS011;4991;43.566;27.820;2023-04-25T03:24:20;25.27;;;12.97;;
9904;SDS011;4991;43.566;27.820;2023-04-25T03:26:45;20.73;;;13.40;;
9904;SDS011;4991;43.566;27.820;2023-04-25T03:29:11;29.27;;;14.07;;
9904;SDS011;4991;43.566;27.820;2023-04-25T03:31:37;26.47;;;14.20;;
9904;SDS011;4991;43.566;27.820;2023-04-25T03:34:02;26.43;;;14.40;;
9904;SDS011;4991;43.566;27.820;2023-04-25T03:36:28;36.43;;;14.90;;
9904;SDS011;4991;43.566;27.820;2023-04-25T03:38:53;31.97;;;16.17;;
9904;SDS011;4991;43.566;27.820;2023-04-25T03:41:19;21.60;;;14.93;;
9904;SDS011;4991;43.566;27.820;2023-04-25T03:43:45;27.37;;;14.97;;
9904;SDS011;4991;43.566;27.820;2023-04-25T03:46:11;27.37;;;16.47;;
9904;SDS011;4991;43.566;27.820;2023-04-25T03:48:36;31.20;;;15.33;;
9904;SDS011;4991;43.566;27.820;2023-04-25T03:51:02;25.60;;;15.20;;
9904;SDS011;4991;43.566;27.820;2023-04-25T03:53:28;23.47;;;15.40;;
9904;SDS011;4991;43.566;27.820;2023-04-25T03:55:53;36.57;;;18.97;;
9904;SDS011;4991;43.566;27.820;2023-04-25T03:58:19;25.87;;;15.80;;
9904;SDS011;4991;43.566;27.820;2023-04-25T04:00:45;20.63;;;14.83;;
9904;SDS011;4991;43.566;27.820;2023-04-25T04:03:10;26.00;;;14.90;;
9904;SDS011;4991;43.566;27.820;2023-04-25T04:05:36;27.87;;;15.37;;
9904;SDS011;4991;43.566;27.820;2023-04-25T04:08:02;26.17;;;14.77;;
9904;SDS011;4991;43.566;27.820;2023-04-25T04:10:27;20.27;;;12.87;;
9904;SDS011;4991;43.566;27.820;2023-04-25T04:12:53;22.37;;;12.90;;
9904;SDS011;4991;43.566;27.820;2023-04-25T04:15:18;21.17;;;13.20;;
9904;SDS011;4991;43.566;27.820;2023-04-25T04:17:44;26.03;;;14.33;;
9904;SDS011;4991;43.566;27.820;2023-04-25T04:20:10;29.13;;;14.23;;
9904;SDS011;4991;43.566;27.820;2023-04-25T04:22:38;19.73;;;12.90;;
9904;SDS011;4991;43.566;27.820;2023-04-25T04:25:04;26.23;;;14.27;;
9904;SDS011;4991;43.566;27.820;2023-04-25T04:27:31;23.40;;;14.53;;
9904;SDS011;4991;43.566;27.820;2023-04-25T04:29:57;21.27;;;13.63;;
9904;SDS011;4991;43.566;27.820;2023-04-25T04:32:23;23.23;;;12.57;;
9904;SDS011;4991;43.566;27.820;2023-04-25T04:34:49;18.50;;;12.40;;
9904;SDS011;4991;43.566;27.820;2023-04-25T04:37:14;19.63;;;13.47;;
9904;SDS011;4991;43.566;27.820;2023-04-25T04:39:40;20.67;;;13.23;;
9904;SDS011;4991;43.566;27.820;2023-04-25T04:42:06;18.70;;;12.00;;
9904;SDS011;4991;43.566;27.820;2023-04-25T04:44:32;20.37;;;11.60;;
9904;SDS011;4991;43.566;27.820;2023-04-25T04:46:58;20.10;;;11.83;;
9904;SDS011;4991;43.566;27.820;2023-04-25T04:49:24;14.60;;;10.57;;
9904;SDS011;4991;43.566;27.820;2023-04-25T04:51:50;23.47;;;10.60;;
9904;SDS011;4991;43.566;27.820;2023-04-25T04:54:16;15.23;;;10.20;;
9904;SDS011;4991;43.566;27.820;2023-04-25T04:56:41;14.10;;;9.13;;
9904;SDS011;4991;43.566;27.820;2023-04-25T04:59:07;16.17;;;9.43;;
9904;SDS011;4991;43.566;27.820;2023-04-25T05:01:32;22.73;;;11.13;;
9904;SDS011;4991;43.566;27.820;2023-04-25T05:04:00;15.77;;;9.77;;
9904;SDS011;4991;43.566;27.820;2023-04-25T05:06:27;16.83;;;9.87;;
9904;SDS011;4991;43.566;27.820;2023-04-25T05:08:57;19.70;;;12.30;;
9904;SDS011;4991;43.566;27.820;2023-04-25T05:11:25;20.13;;;11.87;;
9904;SDS011;4991;43.566;27.820;2023-04-25T05:13:54;18.27;;;8.73;;
9904;SDS011;4991;43.566;27.820;2023-04-25T05:16:20;15.30;;;8.37;;
9904;SDS011;4991;43.566;27.820;2023-04-25T05:18:46;12.73;;;7.13;;
9904;SDS011;4991;43.566;27.820;2023-04-25T05:21:12;14.93;;;8.93;;
9904;SDS011;4991;43.566;27.820;2023-04-25T05:23:38;16.47;;;7.17;;
9904;SDS011;4991;43.566;27.820;2023-04-25T05:26:03;16.57;;;7.30;;
9904;SDS011;4991;43.566;27.820;2023-04-25T05:28:29;10.80;;;6.40;;
9904;SDS011;4991;43.566;27.820;2023-04-25T05:30:56;13.63;;;6.23;;
9904;SDS011;4991;43.566;27.820;2023-04-25T05:33:21;10.50;;;6.43;;
9904;SDS011;4991;43.566;27.820;2023-04-25T05:35:47;13.63;;;6.67;;
9904;SDS011;4991;43.566;27.820;2023-04-25T05:38:13;10.70;;;6.07;;
9904;SDS011;4991;43.566;27.820;2023-04-25T05:40:38;11.43;;;5.77;;
9904;SDS011;4991;43.566;27.820;2023-04-25T05:43:04;11.30;;;5.23;;
9904;SDS011;4991;43.566;27.820;2023-04-25T05:45:29;16.37;;;9.70;;
9904;SDS011;4991;43.566;27.820;2023-04-25T05:47:55;7.33;;;5.50;;
9904;SDS011;4991;43.566;27.820;2023-04-25T05:50:21;8.33;;;5.33;;
9904;SDS011;4991;43.566;27.820;2023-04-25T05:52:46;10.83;;;5.60;;
9904;SDS011;4991;43.566;27.820;2023-04-25T05:55:12;9.47;;;5.40;;
9904;SDS011;4991;43.566;27.820;2023-04-25T05:57:38;10.87;;;5.80;;
9904;SDS011;4991;43.566;27.820;2023-04-25T06:00:07;17.50;;;6.87;;
9904;SDS011;4991;43.566;27.820;2023-04-25T06:02:34;9.83;;;5.87;;
9904;SDS011;4991;43.566;27.820;2023-04-25T06:05:00;10.67;;;6.17;;
9904;SDS011;4991;43.566;27.820;2023-04-25T06:07:28;13.20;;;6.40;;
9904;SDS011;4991;43.566;27.820;2023-04-25T06:09:56;12.77;;;6.50;;
9904;SDS011;4991;43.566;27.820;2023-04-25T06:12:23;7.87;;;4.87;;
9904;SDS011;4991;43.566;27.820;2023-04-25T06:14:49;9.10;;;5.53;;
9904;SDS011;4991;43.566;27.820;2023-04-25T06:17:14;7.97;;;5.13;;
9904;SDS011;4991;43.566;27.820;2023-04-25T06:19:40;6.67;;;4.70;;
9904;SDS011;4991;43.566;27.820;2023-04-25T06:22:06;8.43;;;4.13;;
9904;SDS011;4991;43.566;27.820;2023-04-25T06:24:32;7.00;;;4.10;;
9904;SDS011;4991;43.566;27.820;2023-04-25T06:26:58;6.73;;;4.27;;
9904;SDS011;4991;43.566;27.820;2023-04-25T06:29:25;8.63;;;4.10;;
9904;SDS011;4991;43.566;27.820;2023-04-25T06:31:50;9.03;;;4.40;;
9904;SDS011;4991;43.566;27.820;2023-04-25T06:34:16;10.30;;;4.93;;
9904;SDS011;4991;43.566;27.820;2023-04-25T06:36:42;8.17;;;4.37;;
9904;SDS011;4991;43.566;27.820;2023-04-25T06:39:09;7.07;;;4.50;;
9904;SDS011;4991;43.566;27.820;2023-04-25T06:41:35;9.97;;;4.60;;
9904;SDS011;4991;43.566;27.820;2023-04-25T06:44:01;7.57;;;4.73;;
9904;SDS011;4991;43.566;27.820;2023-04-25T06:46:27;9.87;;;4.50;;
9904;SDS011;4991;43.566;27.820;2023-04-25T06:48:52;6.40;;;4.67;;
9904;SDS011;4991;43.566;27.820;2023-04-25T06:51:18;9.37;;;4.30;;
9904;SDS011;4991;43.566;27.820;2023-04-25T06:53:44;7.73;;;3.93;;
9904;SDS011;4991;43.566;27.820;2023-04-25T06:56:09;8.27;;;4.10;;
9904;SDS011;4991;43.566;27.820;2023-04-25T06:58:35;10.00;;;4.73;;
9904;SDS011;4991;43.566;27.820;2023-04-25T07:01:00;7.00;;;4.20;;
9904;SDS011;4991;43.566;27.820;2023-04-25T07:03:26;7.13;;;4.13;;
9904;SDS011;4991;43.566;27.820;2023-04-25T07:05:52;9.30;;;4.77;;
9904;SDS011;4991;43.566;27.820;2023-04-25T07:08:17;15.07;;;5.70;;
9904;SDS011;4991;43.566;27.820;2023-04-25T07:10:43;3.90;;;3.60;;
9904;SDS011;4991;43.566;27.820;2023-04-25T07:13:08;9.47;;;4.40;;
9904;SDS011;4991;43.566;27.820;2023-04-25T07:15:34;9.43;;;4.13;;
9904;SDS011;4991;43.566;27.820;2023-04-25T07:18:00;9.47;;;4.63;;
9904;SDS011;4991;43.566;27.820;2023-04-25T07:20:25;9.23;;;4.87;;
9904;SDS011;4991;43.566;27.820;2023-04-25T07:22:52;8.77;;;4.00;;
9904;SDS011;4991;43.566;27.820;2023-04-25T07:25:19;11.03;;;4.00;;
9904;SDS011;4991;43.566;27.820;2023-04-25T07:27:45;4.80;;;4.10;;
9904;SDS011;4991;43.566;27.820;2023-04-25T07:30:11;8.47;;;3.77;;
9904;SDS011;4991;43.566;27.820;2023-04-25T07:32:37;5.13;;;3.60;;
9904;SDS011;4991;43.566;27.820;2023-04-25T07:35:03;7.27;;;4.93;;
9904;SDS011;4991;43.566;27.820;2023-04-25T07:37:29;6.73;;;4.37;;
9904;SDS011;4991;43.566;27.820;2023-04-25T07:39:55;6.53;;;3.80;;
9904;SDS011;4991;43.566;27.820;2023-04-25T07:42:20;8.67;;;5.13;;
9904;SDS011;4991;43.566;27.820;2023-04-25T07:44:46;6.57;;;4.63;;
9904;SDS011;4991;43.566;27.820;2023-04-25T07:47:12;10.70;;;5.47;;
9904;SDS011;4991;43.566;27.820;2023-04-25T07:49:38;6.37;;;4.40;;
9904;SDS011;4991;43.566;27.820;2023-04-25T07:52:05;7.17;;;4.30;;
9904;SDS011;4991;43.566;27.820;2023-04-25T07:54:31;10.63;;;4.40;;
9904;SDS011;4991;43.566;27.820;2023-04-25T07:56:57;4.67;;;3.80;;
9904;SDS011;4991;43.566;27.820;2023-04-25T07:59:24;7.53;;;4.50;;
9904;SDS011;4991;43.566;27.820;2023-04-25T08:01:49;4.90;;;3.60;;
9904;SDS011;4991;43.566;27.820;2023-04-25T08:04:16;6.17;;;4.37;;
9904;SDS011;4991;43.566;27.820;2023-04-25T08:06:42;8.23;;;4.37;;
9904;SDS011;4991;43.566;27.820;2023-04-25T08:09:08;6.53;;;3.87;;
9904;SDS011;4991;43.566;27.820;2023-04-25T08:11:34;8.37;;;3.97;;
9904;SDS011;4991;43.566;27.820;2023-04-25T08:14:00;6.87;;;3.80;;
9904;SDS011;4991;43.566;27.820;2023-04-25T08:16:25;4.17;;;3.77;;
9904;SDS011;4991;43.566;27.820;2023-04-25T08:18:51;6.37;;;3.97;;
9904;SDS011;4991;43.566;27.820;2023-04-25T08:21:17;4.37;;;3.70;;
9904;SDS011;4991;43.566;27.820;2023-04-25T08:23:42;4.10;;;3.70;;
9904;SDS011;4991;43.566;27.820;2023-04-25T08:26:08;7.20;;;3.80;;
9904;SDS011;4991;43.566;27.820;2023-04-25T08:28:34;5.63;;;3.57;;
9904;SDS011;4991;43.566;27.820;2023-04-25T08:30:59;5.43;;;3.73;;
9904;SDS011;4991;43.566;27.820;2023-04-25T08:33:25;7.10;;;3.60;;
9904;SDS011;4991;43.566;27.820;2023-04-25T08:35:50;8.93;;;4.33;;
9904;SDS011;4991;43.566;27.820;2023-04-25T08:38:17;4.60;;;3.60;;
9904;SDS011;4991;43.566;27.820;2023-04-25T08:40:43;6.30;;;3.80;;
9904;SDS011;4991;43.566;27.820;2023-04-25T08:43:09;5.33;;;3.87;;
9904;SDS011;4991;43.566;27.820;2023-04-25T08:45:40;4.87;;;3.63;;
9904;SDS011;4991;43.566;27.820;2023-04-25T08:48:14;5.70;;;3.60;;
9904;SDS011;4991;43.566;27.820;2023-04-25T08:50:45;4.50;;;3.80;;
9904;SDS011;4991;43.566;27.820;2023-04-25T08:53:16;7.10;;;4.60;;
9904;SDS011;4991;43.566;27.820;2023-04-25T08:55:46;6.33;;;4.03;;
9904;SDS011;4991;43.566;27.820;2023-04-25T08:58:13;4.17;;;3.53;;
9904;SDS011;4991;43.566;27.820;2023-04-25T09:00:39;5.87;;;4.30;;
9904;SDS011;4991;43.566;27.820;2023-04-25T09:03:05;8.07;;;4.73;;
9904;SDS011;4991;43.566;27.820;2023-04-25T09:05:34;5.73;;;3.83;;
9904;SDS011;4991;43.566;27.820;2023-04-25T09:08:01;4.00;;;3.57;;
9904;SDS011;4991;43.566;27.820;2023-04-25T09:10:26;4.67;;;3.67;;
9904;SDS011;4991;43.566;27.820;2023-04-25T09:13:03;4.80;;;4.03;;
9904;SDS011;4991;43.566;27.820;2023-04-25T09:15:30;4.70;;;3.77;;
9904;SDS011;4991;43.566;27.820;2023-04-25T09:17:56;5.03;;;3.83;;
9904;SDS011;4991;43.566;27.820;2023-04-25T09:20:22;5.57;;;4.17;;
9904;SDS011;4991;43.566;27.820;2023-04-25T09:23:00;6.13;;;3.93;;
9904;SDS011;4991;43.566;27.820;2023-04-25T09:25:27;4.40;;;3.87;;
9904;SDS011;4991;43.566;27.820;2023-04-25T09:28:00;6.07;;;4.10;;
9904;SDS011;4991;43.566;27.820;2023-04-25T09:30:29;8.93;;;4.73;;
9904;SDS011;4991;43.566;27.820;2023-04-25T09:32:57;5.80;;;5.10;;
9904;SDS011;4991;43.566;27.820;2023-04-25T09:35:28;4.43;;;3.50;;
9904;SDS011;4991;43.566;27.820;2023-04-25T09:37:55;5.40;;;3.60;;
9904;SDS011;4991;43.566;27.820;2023-04-25T09:40:21;5.33;;;3.70;;
9904;SDS011;4991;43.566;27.820;2023-04-25T09:42:46;5.70;;;4.10;;
9904;SDS011;4991;43.566;27.820;2023-04-25T09:45:13;3.83;;;3.50;;
9904;SDS011;4991;43.566;27.820;2023-04-25T09:47:40;5.30;;;3.43;;
9904;SDS011;4991;43.566;27.820;2023-04-25T09:50:13;4.80;;;3.50;;
9904;SDS011;4991;43.566;27.820;2023-04-25T09:52:40;4.50;;;3.87;;
9904;SDS011;4991;43.566;27.820;2023-04-25T09:55:06;4.30;;;3.45;;
9904;SDS011;4991;43.566;27.820;2023-04-25T09:57:32;4.87;;;3.23;;
9904;SDS011;4991;43.566;27.820;2023-04-25T09:59:58;6.37;;;3.47;;
9904;SDS011;4991;43.566;27.820;2023-04-25T10:02:26;8.13;;;3.45;;
9904;SDS011;4991;43.566;27.820;2023-04-25T10:04:53;4.03;;;3.40;;
9904;SDS011;4991;43.566;27.820;2023-04-25T10:07:20;5.97;;;3.27;;
9904;SDS011;4991;43.566;27.820;2023-04-25T10:09:50;3.47;;;3.17;;
9904;SDS011;4991;43.566;27.820;2023-04-25T10:12:21;6.32;;;3.40;;
9904;SDS011;4991;43.566;27.820;2023-04-25T10:14:47;3.97;;;3.20;;
9904;SDS011;4991;43.566;27.820;2023-04-25T10:17:13;4.22;;;3.30;;
9904;SDS011;4991;43.566;27.820;2023-04-25T10:19:39;4.15;;;3.25;;
9904;SDS011;4991;43.566;27.820;2023-04-25T10:22:13;9.25;;;3.78;;
9904;SDS011;4991;43.566;27.820;2023-04-25T10:24:43;5.20;;;3.30;;
9904;SDS011;4991;43.566;27.820;2023-04-25T10:27:11;5.30;;;3.93;;
9904;SDS011;4991;43.566;27.820;2023-04-25T10:29:38;4.72;;;3.92;;
9904;SDS011;4991;43.566;27.820;2023-04-25T10:32:07;8.68;;;4.28;;
9904;SDS011;4991;43.566;27.820;2023-04-25T10:34:43;8.85;;;4.25;;
9904;SDS011;4991;43.566;27.820;2023-04-25T10:37:12;6.47;;;4.50;;
9904;SDS011;4991;43.566;27.820;2023-04-25T10:39:39;6.38;;;5.00;;
9904;SDS011;4991;43.566;27.820;2023-04-25T10:42:06;6.07;;;4.75;;
9904;SDS011;4991;43.566;27.820;2023-04-25T10:44:36;6.15;;;4.18;;
9904;SDS011;4991;43.566;27.820;2023-04-25T10:47:07;8.65;;;4.38;;
9904;SDS011;4991;43.566;27.820;2023-04-25T10:49:35;11.82;;;5.35;;
9904;SDS011;4991;43.566;27.820;2023-04-25T10:52:11;10.50;;;4.90;;
9904;SDS011;4991;43.566;27.820;2023-04-25T10:54:46;4.80;;;3.70;;
9904;SDS011;4991;43.566;27.820;2023-04-25T11:00:14;9.50;;;5.05;;
9904;SDS011;4991;43.566;27.820;2023-04-25T11:02:58;8.65;;;4.40;;
9904;SDS011;4991;43.566;27.820;2023-04-25T11:08:00;5.30;;;3.35;;
9904;SDS011;4991;43.566;27.820;2023-04-25T11:10:29;5.53;;;4.30;;
9904;SDS011;4991;43.566;27.820;2023-04-25T11:12:59;4.10;;;3.70;;
9904;SDS011;4991;43.566;27.820;2023-04-25T11:15:28;3.63;;;3.25;;
9904;SDS011;4991;43.566;27.820;2023-04-25T11:17:54;3.65;;;3.15;;
9904;SDS011;4991;43.566;27.820;2023-04-25T11:20:20;3.20;;;2.90;;
9904;SDS011;4991;43.566;27.820;2023-04-25T11:22:47;3.30;;;3.03;;
9904;SDS011;4991;43.566;27.820;2023-04-25T11:25:13;4.38;;;2.60;;
9904;SDS011;4991;43.566;27.820;2023-04-25T11:30:16;7.40;;;2.65;;
9904;SDS011;4991;43.566;27.820;2023-04-25T11:32:42;4.55;;;3.15;;
9904;SDS011;4991;43.566;27.820;2023-04-25T11:35:09;2.95;;;2.65;;
9904;SDS011;4991;43.566;27.820;2023-04-25T11:37:35;3.45;;;3.05;;
9904;SDS011;4991;43.566;27.820;2023-04-25T11:40:02;3.08;;;2.78;;
9904;SDS011;4991;43.566;27.820;2023-04-25T11:42:29;2.90;;;2.60;;
9904;SDS011;4991;43.566;27.820;2023-04-25T11:44:55;5.63;;;3.35;;
9904;SDS011;4991;43.566;27.820;2023-04-25T11:47:27;3.78;;;3.42;;
9904;SDS011;4991;43.566;27.820;2023-04-25T11:49:59;3.20;;;2.90;;
9904;SDS011;4991;43.566;27.820;2023-04-25T11:55:08;2.63;;;2.42;;
9904;SDS011;4991;43.566;27.820;2023-04-25T11:57:34;4.00;;;2.60;;
9904;SDS011;4991;43.566;27.820;2023-04-25T12:02:47;3.05;;;2.25;;
9904;SDS011;4991;43.566;27.820;2023-04-25T12:05:16;2.60;;;2.40;;
9904;SDS011;4991;43.566;27.820;2023-04-25T12:07:41;2.80;;;2.17;;
9904;SDS011;4991;43.566;27.820;2023-04-25T12:10:11;2.58;;;2.35;;
9904;SDS011;4991;43.566;27.820;2023-04-25T12:12:42;5.70;;;2.70;;
9904;SDS011;4991;43.566;27.820;2023-04-25T12:15:22;2.85;;;2.47;;
9904;SDS011;4991;43.566;27.820;2023-04-25T12:17:50;2.78;;;2.50;;
9904;SDS011;4991;43.566;27.820;2023-04-25T12:20:19;3.38;;;2.40;;
9904;SDS011;4991;43.566;27.820;2023-04-25T12:22:49;4.03;;;2.65;;
9904;SDS011;4991;43.566;27.820;2023-04-25T12:25:34;2.70;;;2.45;;
9904;SDS011;4991;43.566;27.820;2023-04-25T12:33:26;3.00;;;2.37;;
9904;SDS011;4991;43.566;27.820;2023-04-25T12:35:53;4.80;;;2.60;;
9904;SDS011;4991;43.566;27.820;2023-04-25T12:40:53;3.47;;;2.70;;
9904;SDS011;4991;43.566;27.820;2023-04-25T12:43:19;4.28;;;2.45;;
9904;SDS011;4991;43.566;27.820;2023-04-25T12:45:49;4.27;;;2.50;;
9904;SDS011;4991;43.566;27.820;2023-04-25T12:48:16;2.90;;;2.60;;
9904;SDS011;4991;43.566;27.820;2023-04-25T12:50:42;4.90;;;2.55;;
9904;SDS011;4991;43.566;27.820;2023-04-25T12:53:08;2.85;;;2.03;;
9904;SDS011;4991;43.566;27.820;2023-04-25T12:55:35;4.28;;;2.30;;
9904;SDS011;4991;43.566;27.820;2023-04-25T12:58:00;4.10;;;2.58;;
9904;SDS011;4991;43.566;27.820;2023-04-25T13:00:26;15.82;;;6.40;;
9904;SDS011;4991;43.566;27.820;2023-04-25T13:02:52;7.88;;;5.20;;
9904;SDS011;4991;43.566;27.820;2023-04-25T13:05:17;8.32;;;5.20;;
9904;SDS011;4991;43.566;27.820;2023-04-25T13:07:43;6.95;;;4.50;;
9904;SDS011;4991;43.566;27.820;2023-04-25T13:10:08;9.43;;;5.40;;
9904;SDS011;4991;43.566;27.820;2023-04-25T13:12:34;9.57;;;5.30;;
9904;SDS011;4991;43.566;27.820;2023-04-25T13:15:00;6.50;;;4.60;;
9904;SDS011;4991;43.566;27.820;2023-04-25T13:17:25;9.77;;;6.33;;
9904;SDS011;4991;43.566;27.820;2023-04-25T13:19:51;9.20;;;5.30;;
9904;SDS011;4991;43.566;27.820;2023-04-25T13:22:17;7.20;;;4.73;;
9904;SDS011;4991;43.566;27.820;2023-04-25T13:24:45;6.80;;;5.07;;
9904;SDS011;4991;43.566;27.820;2023-04-25T13:27:11;8.33;;;4.57;;
9904;SDS011;4991;43.566;27.820;2023-04-25T13:29:38;10.23;;;5.30;;
9904;SDS011;4991;43.566;27.820;2023-04-25T13:32:05;4.30;;;3.90;;
9904;SDS011;4991;43.566;27.820;2023-04-25T13:34:31;4.70;;;3.43;;
9904;SDS011;4991;43.566;27.820;2023-04-25T13:36:57;6.70;;;3.90;;
9904;SDS011;4991;43.566;27.820;2023-04-25T13:39:23;9.03;;;3.17;;
9904;SDS011;4991;43.566;27.820;2023-04-25T13:41:49;5.33;;;2.60;;
9904;SDS011;4991;43.566;27.820;2023-04-25T13:44:15;6.97;;;3.83;;
9904;SDS011;4991;43.566;27.820;2023-04-25T13:46:41;5.40;;;3.43;;
9904;SDS011;4991;43.566;27.820;2023-04-25T13:49:07;9.00;;;3.97;;
9904;SDS011;4991;43.566;27.820;2023-04-25T13:51:33;10.77;;;4.00;;
9904;SDS011;4991;43.566;27.820;2023-04-25T13:53:59;0.20;;;0.20;;
9904;SDS011;4991;43.566;27.820;2023-04-25T13:56:25;0.20;;;0.20;;
9904;SDS011;4991;43.566;27.820;2023-04-25T13:58:51;0.20;;;0.20;;
9904;SDS011;4991;43.566;27.820;2023-04-25T14:01:17;0.20;;;0.20;;
9904;SDS011;4991;43.566;27.820;2023-04-25T14:03:43;0.20;;;0.20;;
9904;SDS011;4991;43.566;27.820;2023-04-25T14:06:09;0.20;;;0.20;;
9904;SDS011;4991;43.566;27.820;2023-04-25T14:08:36;0.20;;;0.20;;
9904;SDS011;4991;43.566;27.820;2023-04-25T14:11:02;0.20;;;0.20;;
9904;SDS011;4991;43.566;27.820;2023-04-25T14:13:28;0.20;;;0.20;;
9904;SDS011;4991;43.566;27.820;2023-04-25T14:15:54;0.20;;;0.20;;
9904;SDS011;4991;43.566;27.820;2023-04-25T14:18:20;0.17;;;0.17;;
9904;SDS011;4991;43.566;27.820;2023-04-25T14:20:45;0.20;;;0.20;;
9904;SDS011;4991;43.566;27.820;2023-04-25T14:23:11;1.27;;;1.27;;
9904;SDS011;4991;43.566;27.820;2023-04-25T14:25:37;0.30;;;0.30;;
9904;SDS011;4991;43.566;27.820;2023-04-25T14:28:03;0.20;;;0.20;;
9904;SDS011;4991;43.566;27.820;2023-04-25T14:30:29;0.20;;;0.20;;
9904;SDS011;4991;43.566;27.820;2023-04-25T14:32:55;0.20;;;0.20;;
9904;SDS011;4991;43.566;27.820;2023-04-25T14:35:20;0.10;;;0.10;;
9904;SDS011;4991;43.566;27.820;2023-04-25T14:37:46;0.73;;;0.73;;
9904;SDS011;4991;43.566;27.820;2023-04-25T14:40:12;0.10;;;0.10;;
9904;SDS011;4991;43.566;27.820;2023-04-25T14:42:40;0.20;;;0.20;;
9904;SDS011;4991;43.566;27.820;2023-04-25T14:45:06;0.50;;;0.50;;
9904;SDS011;4991;43.566;27.820;2023-04-25T14:47:34;0.20;;;0.20;;
9904;SDS011;4991;43.566;27.820;2023-04-25T14:50:01;0.20;;;0.20;;
9904;SDS011;4991;43.566;27.820;2023-04-25T14:52:27;0.10;;;0.10;;
9904;SDS011;4991;43.566;27.820;2023-04-25T14:54:53;0.20;;;0.20;;
9904;SDS011;4991;43.566;27.820;2023-04-25T14:57:18;0.10;;;0.10;;
9904;SDS011;4991;43.566;27.820;2023-04-25T14:59:44;0.20;;;0.20;;
9904;SDS011;4991;43.566;27.820;2023-04-25T15:02:10;0.20;;;0.20;;
9904;SDS011;4991;43.566;27.820;2023-04-25T15:04:36;0.20;;;0.20;;
9904;SDS011;4991;43.566;27.820;2023-04-25T15:07:02;0.30;;;0.30;;
9904;SDS011;4991;43.566;27.820;2023-04-25T15:09:29;0.20;;;0.20;;
9904;SDS011;4991;43.566;27.820;2023-04-25T15:11:55;0.20;;;0.20;;